Time;durP1;ratioP1;P1;durP2;ratioP2;P2;SDS_P1;SDS_P2;PMS_P1;PMS_P2;Temp;Humidity;BMP_temperature;BMP_pressure;BME280_temperature;BME280_humidity;BME280_pressure;Samples;Min_cycle;Max_cycle;Signal;HPM_P1;HPM_P2
2022/07/10 00:01:45;;;;;;;3.50;3.30;;;17.30;99.90;;;;;;5057140;28;20470;-70
2022/07/10 00:04:11;;;;;;;4.17;3.83;;;17.30;99.90;;;;;;5056800;28;20466;-71
2022/07/10 00:06:40;;;;;;;3.47;3.17;;;17.30;99.90;;;;;;5056795;28;20467;-71
2022/07/10 00:09:09;;;;;;;4.10;3.80;;;17.20;99.90;;;;;;5056637;28;20491;-70
2022/07/10 00:11:35;;;;;;;3.50;3.20;;;17.30;99.90;;;;;;5056313;28;20447;-70
2022/07/10 00:14:02;;;;;;;4.40;4.00;;;17.20;99.90;;;;;;5056774;28;20471;-70
2022/07/10 00:16:29;;;;;;;3.80;3.50;;;17.20;99.90;;;;;;5056400;28;20464;-70
2022/07/10 00:18:55;;;;;;;3.50;3.20;;;17.20;99.90;;;;;;5056043;28;20455;-71
2022/07/10 00:21:22;;;;;;;3.47;3.17;;;17.20;99.90;;;;;;5055755;28;20974;-70
2022/07/10 00:23:49;;;;;;;4.23;3.90;;;17.20;99.90;;;;;;5055986;28;20846;-70
2022/07/10 00:26:17;;;;;;;3.57;3.27;;;17.20;99.90;;;;;;5055691;28;20496;-71
2022/07/10 00:28:44;;;;;;;3.93;3.63;;;17.20;99.90;;;;;;5055862;28;20490;-71
2022/07/10 00:31:10;;;;;;;3.50;2.90;;;17.20;99.90;;;;;;5055359;28;20543;-69
2022/07/10 00:33:37;;;;;;;4.10;3.70;;;17.20;99.90;;;;;;5055400;28;20502;-70
2022/07/10 00:36:04;;;;;;;3.70;3.30;;;17.20;99.90;;;;;;5055286;28;20486;-70
2022/07/10 00:38:31;;;;;;;3.40;3.10;;;17.20;99.90;;;;;;5055457;28;20451;-70
2022/07/10 00:40:58;;;;;;;3.70;3.40;;;17.20;99.90;;;;;;5055138;28;20470;-70
2022/07/10 00:43:26;;;;;;;3.93;3.63;;;17.20;99.90;;;;;;5055606;28;20459;-69
2022/07/10 00:45:53;;;;;;;3.53;3.30;;;17.20;99.90;;;;;;5055451;28;20486;-70
2022/07/10 00:48:19;;;;;;;4.13;3.77;;;17.20;99.90;;;;;;5054592;28;20486;-69
2022/07/10 00:50:47;;;;;;;3.53;3.30;;;17.20;99.90;;;;;;5054235;28;20468;-70
2022/07/10 00:53:14;;;;;;;3.90;3.60;;;17.20;99.90;;;;;;5055049;28;20463;-69
2022/07/10 00:55:42;;;;;;;4.20;3.80;;;17.30;99.90;;;;;;5054378;28;20490;-70
2022/07/10 00:58:12;;;;;;;4.10;3.33;;;17.20;99.90;;;;;;5054824;28;20958;-70
2022/07/10 01:00:41;;;;;;;6.00;3.53;;;17.20;99.90;;;;;;5054324;28;20567;-69
2022/07/10 01:03:08;;;;;;;4.33;3.97;;;17.20;99.90;;;;;;5054851;28;20466;-70
2022/07/10 01:05:34;;;;;;;4.00;3.60;;;17.20;99.90;;;;;;5054849;28;20483;-70
2022/07/10 01:08:02;;;;;;;4.80;4.00;;;17.20;99.90;;;;;;5055240;28;20487;-69
2022/07/10 01:10:28;;;;;;;3.83;3.33;;;17.10;99.90;;;;;;5054482;28;20479;-71
2022/07/10 01:12:55;;;;;;;3.43;3.13;;;17.10;99.90;;;;;;5054681;28;20826;-70
2022/07/10 01:15:22;;;;;;;3.70;3.40;;;17.10;99.90;;;;;;5054529;28;20515;-70
2022/07/10 01:17:53;;;;;;;4.80;4.30;;;17.10;99.90;;;;;;5054289;28;20466;-70
2022/07/10 01:20:19;;;;;;;3.67;3.37;;;17.00;99.90;;;;;;5054116;28;20462;-70
2022/07/10 01:22:47;;;;;;;3.43;3.13;;;17.00;99.90;;;;;;5054735;28;20463;-70
2022/07/10 01:25:14;;;;;;;3.90;3.60;;;16.90;99.90;;;;;;5053114;28;20479;-69
2022/07/10 01:27:41;;;;;;;3.33;3.03;;;16.90;99.90;;;;;;5052415;28;20986;-70
2022/07/10 01:30:09;;;;;;;6.17;3.60;;;16.90;99.90;;;;;;5052401;28;20977;-70
2022/07/10 01:32:39;;;;;;;3.63;3.20;;;16.80;99.90;;;;;;5052743;28;20472;-70
2022/07/10 01:35:08;;;;;;;4.00;3.53;;;16.80;99.90;;;;;;5053040;28;20483;-71
2022/07/10 01:37:34;;;;;;;4.23;3.80;;;16.80;99.90;;;;;;5055944;28;20459;-70
2022/07/10 01:40:03;;;;;;;4.30;4.00;;;16.80;99.90;;;;;;5055486;28;20871;-70
2022/07/10 01:42:30;;;;;;;4.00;3.70;;;16.80;99.90;;;;;;5055424;28;20482;-70
2022/07/10 01:44:57;;;;;;;3.70;3.40;;;16.70;99.90;;;;;;5055211;28;20483;-71
2022/07/10 01:47:24;;;;;;;3.73;3.07;;;16.70;99.90;;;;;;5054556;28;20470;-69
2022/07/10 01:49:51;;;;;;;4.70;3.90;;;16.60;99.90;;;;;;5054572;28;20460;-70
2022/07/10 01:52:18;;;;;;;4.17;3.87;;;16.60;99.90;;;;;;5055291;28;20865;-68
2022/07/10 01:54:44;;;;;;;3.83;3.53;;;16.60;99.90;;;;;;5055050;28;20475;-70
2022/07/10 01:57:13;;;;;;;4.00;3.70;;;16.50;99.90;;;;;;5053062;28;20478;-70
2022/07/10 01:59:40;;;;;;;5.70;3.87;;;16.50;99.90;;;;;;5051993;28;20470;-70
2022/07/10 02:02:07;;;;;;;4.20;3.90;;;16.50;99.90;;;;;;5052796;28;20513;-70
2022/07/10 02:04:42;;;;;;;4.90;4.50;;;16.50;99.90;;;;;;5052364;28;20506;-70
2022/07/10 02:07:09;;;;;;;4.50;4.20;;;16.40;99.90;;;;;;5052633;28;20569;-70
2022/07/10 02:09:36;;;;;;;3.90;3.60;;;16.30;99.90;;;;;;5051389;28;20514;-69
2022/07/10 02:12:03;;;;;;;4.23;3.73;;;16.30;99.90;;;;;;5052429;28;20459;-70
2022/07/10 02:14:31;;;;;;;4.50;4.20;;;16.30;99.90;;;;;;5052253;28;20479;-70
2022/07/10 02:16:58;;;;;;;4.50;4.10;;;16.30;99.90;;;;;;5052451;28;20463;-70
2022/07/10 02:19:24;;;;;;;5.20;4.80;;;16.20;99.90;;;;;;5051895;28;20463;-70
2022/07/10 02:21:51;;;;;;;4.53;4.13;;;16.20;99.90;;;;;;5051834;28;20472;-70
2022/07/10 02:24:18;;;;;;;4.73;4.43;;;16.10;99.90;;;;;;5052094;28;20907;-71
2022/07/10 02:26:45;;;;;;;5.33;4.87;;;16.10;99.90;;;;;;5051874;28;20463;-70
2022/07/10 02:29:12;;;;;;;5.90;5.40;;;16.10;99.90;;;;;;5051729;28;20491;-70
2022/07/10 02:31:41;;;;;;;9.60;6.30;;;16.10;99.90;;;;;;5052534;28;20843;-69
2022/07/10 02:34:08;;;;;;;9.53;8.03;;;16.00;99.90;;;;;;5052859;28;20517;-70
2022/07/10 02:36:35;;;;;;;10.03;7.43;;;16.00;99.90;;;;;;5052414;28;20978;-70
2022/07/10 02:39:02;;;;;;;8.80;8.00;;;16.00;99.90;;;;;;5052997;28;20461;-71
2022/07/10 02:41:28;;;;;;;8.50;7.70;;;16.00;99.90;;;;;;5051089;28;20466;-70
2022/07/10 02:43:55;;;;;;;10.53;8.10;;;16.00;99.90;;;;;;5050029;28;20542;-69
2022/07/10 02:46:22;;;;;;;9.80;8.90;;;16.10;99.90;;;;;;5050512;28;20834;-70
2022/07/10 02:48:50;;;;;;;11.00;9.90;;;16.10;99.90;;;;;;5050059;28;20856;-70
2022/07/10 02:51:17;;;;;;;10.13;9.23;;;16.10;99.90;;;;;;5049863;28;20467;-70
2022/07/10 02:53:43;;;;;;;8.97;8.17;;;16.10;99.90;;;;;;5050249;28;20470;-71
2022/07/10 02:56:10;;;;;;;9.97;9.07;;;16.10;99.90;;;;;;5064266;22;21037;-67
2022/07/10 02:58:39;;;;;;;10.30;9.30;;;16.10;99.90;;;;;;5051672;28;20451;-67
2022/07/10 03:01:06;;;;;;;11.80;10.33;;;16.20;99.90;;;;;;5053197;28;20461;-67
2022/07/10 03:03:33;;;;;;;11.30;10.30;;;16.10;99.90;;;;;;5054124;28;20470;-67
2022/07/10 03:06:01;;;;;;;16.20;9.80;;;16.10;99.90;;;;;;5053728;28;20479;-67
2022/07/10 03:08:27;;;;;;;11.03;9.93;;;16.20;99.90;;;;;;5053976;28;20489;-68
2022/07/10 03:10:54;;;;;;;9.07;8.27;;;16.20;99.90;;;;;;5053208;28;20812;-68
2022/07/10 03:13:21;;;;;;;9.13;8.30;;;16.20;99.90;;;;;;5053792;28;20463;-69
2022/07/10 03:15:47;;;;;;;9.70;8.80;;;16.20;99.90;;;;;;5053615;28;20858;-67
2022/07/10 03:18:14;;;;;;;10.40;9.40;;;16.20;99.90;;;;;;5053592;28;20868;-67
2022/07/10 03:20:41;;;;;;;10.20;9.30;;;16.20;99.90;;;;;;5053300;28;20463;-67
2022/07/10 03:23:09;;;;;;;9.03;8.23;;;16.20;99.90;;;;;;5053371;28;20467;-68
2022/07/10 03:25:35;;;;;;;9.57;8.67;;;16.20;99.90;;;;;;5053717;28;20483;-68
2022/07/10 03:28:02;;;;;;;9.77;8.87;;;16.10;99.90;;;;;;5053123;28;20969;-68
2022/07/10 03:30:29;;;;;;;9.47;8.40;;;16.10;99.90;;;;;;5053079;28;20466;-68
2022/07/10 03:32:56;;;;;;;11.33;9.20;;;16.10;99.90;;;;;;5053209;28;20470;-67
2022/07/10 03:35:22;;;;;;;11.37;9.30;;;16.10;99.90;;;;;;5053340;28;21227;-68
2022/07/10 03:37:49;;;;;;;9.20;8.40;;;16.10;99.90;;;;;;5053380;28;20723;-68
2022/07/10 03:40:17;;;;;;;10.00;8.93;;;16.10;99.90;;;;;;5052428;28;20466;-68
2022/07/10 03:42:44;;;;;;;9.53;8.73;;;16.10;99.90;;;;;;5053351;28;20838;-68
2022/07/10 03:45:11;;;;;;;9.43;8.63;;;16.10;99.90;;;;;;5052777;28;20479;-68
2022/07/10 03:47:37;;;;;;;10.50;9.50;;;16.10;99.90;;;;;;5052886;28;20463;-66
2022/07/10 03:50:05;;;;;;;10.83;9.93;;;16.10;99.90;;;;;;5052033;28;20479;-67
2022/07/10 03:52:31;;;;;;;11.47;9.50;;;16.10;99.90;;;;;;5053153;28;20466;-68
2022/07/10 03:54:58;;;;;;;9.23;7.87;;;16.10;99.90;;;;;;5052468;28;21060;-68
2022/07/10 04:00:11;;;;;;;9.17;8.23;;;16.10;99.90;;;;;;5051973;28;20451;-67
2022/07/10 04:02:38;;;;;;;10.83;9.90;;;16.10;99.90;;;;;;5053151;28;20459;-68
2022/07/10 04:05:07;;;;;;;9.33;8.17;;;16.10;99.90;;;;;;5052497;28;20490;-67
2022/07/10 04:07:34;;;;;;;8.50;7.70;;;16.00;99.90;;;;;;5052950;28;20456;-68
2022/07/10 04:10:01;;;;;;;11.10;8.53;;;16.10;99.90;;;;;;5051107;28;20483;-66
2022/07/10 04:12:29;;;;;;;9.10;8.20;;;16.10;99.90;;;;;;5052585;28;20482;-68
2022/07/10 04:14:56;;;;;;;8.43;7.73;;;16.00;99.90;;;;;;5052653;28;20484;-68
2022/07/10 04:17:22;;;;;;;9.33;8.10;;;16.00;99.90;;;;;;5052242;28;20522;-68
2022/07/10 04:19:49;;;;;;;8.77;7.93;;;16.00;99.90;;;;;;5052072;28;20468;-68
2022/07/10 04:22:16;;;;;;;10.13;9.10;;;16.00;99.90;;;;;;5052156;28;20455;-67
2022/07/10 04:24:42;;;;;;;9.27;8.47;;;16.00;99.90;;;;;;5052321;28;20995;-68
2022/07/10 04:27:09;;;;;;;10.00;9.10;;;16.00;99.90;;;;;;5052180;28;20840;-68
2022/07/10 04:29:37;;;;;;;9.10;8.30;;;15.90;99.90;;;;;;5051945;28;20574;-68
2022/07/10 04:32:05;;;;;;;9.10;8.30;;;15.90;99.90;;;;;;5052276;28;20859;-68
2022/07/10 04:34:31;;;;;;;13.73;9.10;;;15.80;99.90;;;;;;5052246;28;20487;-68
2022/07/10 04:36:58;;;;;;;8.43;7.03;;;15.80;99.90;;;;;;5052301;28;20455;-70
2022/07/10 04:39:25;;;;;;;9.33;8.43;;;15.80;99.90;;;;;;5051246;28;20848;-69
2022/07/10 04:41:51;;;;;;;10.43;9.03;;;15.70;99.90;;;;;;5052147;28;20831;-70
2022/07/10 04:44:19;;;;;;;8.30;7.40;;;15.80;99.90;;;;;;5051635;28;20483;-70
2022/07/10 04:46:47;;;;;;;8.50;7.70;;;15.80;99.90;;;;;;5052096;28;20459;-68
2022/07/10 04:49:14;;;;;;;14.13;8.80;;;15.70;99.90;;;;;;5050978;28;20483;-68
2022/07/10 04:51:41;;;;;;;9.80;7.63;;;15.80;99.90;;;;;;5052172;28;20958;-68
2022/07/10 04:54:08;;;;;;;7.83;6.83;;;15.80;99.90;;;;;;5051488;28;20470;-68
2022/07/10 04:56:34;;;;;;;7.77;6.97;;;15.80;99.90;;;;;;5051794;28;20463;-68
2022/07/10 04:59:01;;;;;;;7.27;6.57;;;15.90;99.90;;;;;;5051570;28;20466;-68
2022/07/10 05:01:28;;;;;;;7.77;6.97;;;15.90;99.90;;;;;;5051040;28;20465;-66
2022/07/10 05:03:56;;;;;;;8.33;7.00;;;15.90;99.90;;;;;;5051630;28;20459;-68
2022/07/10 05:06:23;;;;;;;6.60;5.63;;;15.90;99.90;;;;;;5051401;28;20476;-68
2022/07/10 05:08:50;;;;;;;8.10;6.50;;;15.90;99.90;;;;;;5051599;28;20479;-68
2022/07/10 05:11:17;;;;;;;7.00;6.03;;;15.90;99.90;;;;;;5050407;28;20475;-68
2022/07/10 05:13:46;;;;;;;6.77;5.93;;;15.90;99.90;;;;;;5051489;28;20965;-68
2022/07/10 05:16:13;;;;;;;5.67;5.17;;;15.90;99.90;;;;;;5051185;28;20506;-68
2022/07/10 05:18:39;;;;;;;5.27;4.77;;;15.80;99.90;;;;;;5051276;28;20879;-67
2022/07/10 05:21:08;;;;;;;6.90;5.70;;;15.90;99.90;;;;;;5050676;28;20984;-67
2022/07/10 05:23:35;;;;;;;5.70;5.20;;;15.90;99.90;;;;;;5051364;28;20866;-68
2022/07/10 05:26:02;;;;;;;5.90;5.33;;;15.90;99.90;;;;;;5051054;28;20483;-68
2022/07/10 05:28:29;;;;;;;5.20;4.70;;;15.90;99.90;;;;;;5050967;28;20499;-68
2022/07/10 05:30:55;;;;;;;6.73;5.20;;;16.00;99.90;;;;;;5050698;28;20466;-68
2022/07/10 05:33:22;;;;;;;5.40;4.93;;;16.00;99.90;;;;;;5050457;28;20462;-68
2022/07/10 05:35:49;;;;;;;5.97;4.83;;;16.00;99.90;;;;;;5051064;28;20835;-68
2022/07/10 05:38:17;;;;;;;6.07;4.20;;;16.10;99.90;;;;;;5050721;28;20459;-68
2022/07/10 05:40:44;;;;;;;4.40;3.80;;;16.10;99.90;;;;;;5050433;28;20525;-68
2022/07/10 05:43:11;;;;;;;4.90;4.23;;;16.20;99.90;;;;;;5050720;28;20456;-69
2022/07/10 05:45:38;;;;;;;5.00;4.40;;;16.30;99.90;;;;;;5050854;28;20515;-68
2022/07/10 05:48:05;;;;;;;4.13;3.83;;;16.40;99.90;;;;;;5050880;28;20470;-68
2022/07/10 05:50:33;;;;;;;6.90;4.70;;;16.40;99.90;;;;;;5050212;28;20484;-68
2022/07/10 05:53:00;;;;;;;4.37;3.90;;;16.50;99.90;;;;;;5050765;28;20463;-68
2022/07/10 05:55:28;;;;;;;4.37;3.73;;;16.50;99.90;;;;;;5050679;28;20494;-69
2022/07/10 05:57:55;;;;;;;4.07;3.60;;;16.50;99.90;;;;;;5050783;28;20465;-69
2022/07/10 06:00:22;;;;;;;4.90;3.50;;;16.60;99.90;;;;;;5050194;28;20499;-69
2022/07/10 06:02:48;;;;;;;8.83;3.47;;;16.60;99.90;;;;;;5050766;28;20486;-69
2022/07/10 06:05:15;;;;;;;3.83;3.50;;;16.60;99.90;;;;;;5050317;28;20545;-69
2022/07/10 06:07:42;;;;;;;4.43;3.23;;;16.60;99.90;;;;;;5050526;28;20943;-69
2022/07/10 06:10:09;;;;;;;3.20;2.90;;;16.50;99.90;;;;;;5049876;28;20527;-67
2022/07/10 06:12:38;;;;;;;4.90;3.03;;;16.50;99.90;;;;;;5050438;28;20467;-68
2022/07/10 06:15:05;;;;;;;5.38;3.40;;;16.60;99.90;;;;;;5049530;28;20491;-68
2022/07/10 06:17:32;;;;;;;3.30;3.00;;;16.50;99.90;;;;;;5050476;28;20201;-68
2022/07/10 06:19:58;;;;;;;4.40;3.27;;;16.50;99.90;;;;;;5049954;28;20459;-68
2022/07/10 06:22:31;;;;;;;3.90;3.13;;;16.50;99.90;;;;;;5050025;28;20950;-68
2022/07/10 06:24:58;;;;;;;2.77;2.57;;;16.50;99.90;;;;;;5050186;28;20982;-67
2022/07/10 06:27:25;;;;;;;5.70;3.10;;;16.60;99.90;;;;;;5050437;28;20470;-67
2022/07/10 06:29:53;;;;;;;6.03;3.10;;;16.50;99.90;;;;;;5048455;28;20486;-68
2022/07/10 06:32:19;;;;;;;6.67;3.93;;;16.40;99.90;;;;;;5050405;28;20455;-68
2022/07/10 06:34:46;;;;;;;3.57;3.27;;;16.40;99.90;;;;;;5053708;28;20854;-67
2022/07/10 06:37:13;;;;;;;4.50;3.37;;;16.40;99.90;;;;;;5054284;28;20455;-68
2022/07/10 06:39:40;;;;;;;3.20;2.90;;;16.30;99.90;;;;;;5053790;28;20862;-68
2022/07/10 06:42:07;;;;;;;3.83;3.20;;;16.40;99.90;;;;;;5054374;28;20459;-67
2022/07/10 06:44:35;;;;;;;3.40;2.77;;;16.40;99.90;;;;;;5054458;28;20490;-69
2022/07/10 06:49:49;;;;;;;3.10;2.80;;;16.20;99.90;;;;;;5033623;28;20483;-67
2022/07/10 06:52:16;;;;;;;4.30;3.30;;;16.20;99.90;;;;;;5033668;28;20943;-67
2022/07/10 06:54:43;;;;;;;3.60;3.30;;;16.20;99.90;;;;;;5046239;28;20487;-68
2022/07/10 06:57:10;;;;;;;4.73;2.73;;;16.10;99.90;;;;;;5049476;28;20886;-67
2022/07/10 06:59:37;;;;;;;3.97;3.40;;;16.10;99.90;;;;;;5050581;28;20451;-68
2022/07/10 07:02:06;;;;;;;3.47;3.17;;;16.20;99.90;;;;;;5050912;28;20455;-68
2022/07/10 07:04:33;;;;;;;3.47;2.90;;;16.20;99.90;;;;;;5050502;28;20845;-67
2022/07/10 07:06:59;;;;;;;2.57;2.33;;;16.30;99.90;;;;;;5050312;28;20458;-68
2022/07/10 07:09:26;;;;;;;3.00;2.43;;;16.50;99.90;;;;;;5049518;28;20696;-68
2022/07/10 07:11:53;;;;;;;3.20;2.20;;;16.70;99.90;;;;;;5049732;28;20463;-67
2022/07/10 07:14:19;;;;;;;6.10;2.80;;;16.80;99.90;;;;;;5050002;28;20475;-68
2022/07/10 07:16:57;;;;;;;4.03;2.73;;;16.80;99.90;;;;;;5051878;28;20455;-67
2022/07/10 07:19:30;;;;;;;6.00;2.27;;;16.70;99.90;;;;;;5050313;28;20456;-67
2022/07/10 07:24:42;;;;;;;2.37;1.90;;;16.70;99.90;;;;;;5051451;28;20529;-67
2022/07/10 07:27:08;;;;;;;3.80;2.80;;;16.60;99.90;;;;;;5050859;28;20463;-68
2022/07/10 07:29:35;;;;;;;3.80;2.50;;;16.60;99.90;;;;;;5050312;28;21113;-68
2022/07/10 07:32:02;;;;;;;3.77;2.40;;;16.60;99.90;;;;;;5049457;28;20466;-68
2022/07/10 07:34:30;;;;;;;5.07;2.43;;;16.60;99.90;;;;;;5051028;28;20483;-68
2022/07/10 07:36:57;;;;;;;4.50;2.43;;;16.60;99.90;;;;;;5050296;28;20459;-68
2022/07/10 07:39:24;;;;;;;2.73;2.40;;;16.50;99.90;;;;;;5049859;28;20981;-68
2022/07/10 07:41:51;;;;;;;2.93;2.40;;;16.50;99.90;;;;;;5050496;28;20496;-68
2022/07/10 07:44:18;;;;;;;3.80;2.50;;;16.40;99.90;;;;;;5047714;28;20479;-68
2022/07/10 07:46:45;;;;;;;3.03;2.73;;;16.30;99.90;;;;;;5050362;28;20524;-68
2022/07/10 07:49:11;;;;;;;4.53;3.00;;;16.30;99.90;;;;;;5048046;28;20459;-67
2022/07/10 07:51:39;;;;;;;2.67;2.47;;;16.30;99.90;;;;;;5047591;28;20463;-68
2022/07/10 07:54:06;;;;;;;2.40;2.20;;;16.40;99.90;;;;;;5047983;28;20464;-67
2022/07/10 07:56:33;;;;;;;2.90;2.60;;;16.50;99.90;;;;;;5051604;28;20459;-68
2022/07/10 07:59:00;;;;;;;3.70;2.70;;;16.80;99.90;;;;;;5050381;28;20829;-67
2022/07/10 08:01:26;;;;;;;3.27;2.60;;;16.90;99.90;;;;;;5050108;28;20452;-68
2022/07/10 08:03:55;;;;;;;2.50;2.30;;;17.00;99.90;;;;;;5045669;28;20463;-68
2022/07/10 08:06:22;;;;;;;4.47;2.50;;;17.10;99.90;;;;;;5045195;28;21183;-68
2022/07/10 08:08:50;;;;;;;2.90;2.33;;;17.20;99.90;;;;;;5043364;28;20461;-67
2022/07/10 08:11:17;;;;;;;2.40;2.20;;;17.20;99.90;;;;;;5043900;28;20525;-67
2022/07/10 08:13:44;;;;;;;5.10;2.40;;;17.20;99.90;;;;;;5050705;28;20456;-68
2022/07/10 08:16:11;;;;;;;3.77;2.73;;;17.20;99.90;;;;;;5047851;28;20484;-66
2022/07/10 08:18:37;;;;;;;4.10;2.47;;;17.10;99.90;;;;;;5049355;28;20459;-68
2022/07/10 08:21:04;;;;;;;3.57;2.33;;;17.10;99.90;;;;;;5049263;28;20958;-68
2022/07/10 08:23:31;;;;;;;4.80;2.77;;;17.20;99.90;;;;;;5049984;28;20502;-68
2022/07/10 08:25:59;;;;;;;3.97;2.67;;;17.30;99.90;;;;;;5050144;28;20479;-68
2022/07/10 08:28:26;;;;;;;3.17;2.60;;;17.30;99.90;;;;;;5049690;28;20942;-67
2022/07/10 08:30:52;;;;;;;4.40;2.53;;;17.30;99.90;;;;;;5049630;28;20498;-68
2022/07/10 08:33:20;;;;;;;3.93;2.60;;;17.30;99.90;;;;;;5049650;28;20463;-68
2022/07/10 08:35:47;;;;;;;3.90;1.90;;;17.30;99.90;;;;;;5049966;28;20848;-68
2022/07/10 08:38:13;;;;;;;3.23;2.40;;;17.50;99.90;;;;;;5049535;28;20459;-66
2022/07/10 08:40:40;;;;;;;1.93;1.83;;;17.70;99.90;;;;;;5042611;28;20464;-67
2022/07/10 08:43:08;;;;;;;2.43;2.13;;;17.90;99.90;;;;;;5047311;28;20471;-68
2022/07/10 08:45:35;;;;;;;1.87;1.77;;;18.20;99.90;;;;;;5046729;28;20475;-68
2022/07/10 08:48:05;;;;;;;4.30;2.30;;;18.30;99.90;;;;;;5046471;28;20930;-67
2022/07/10 08:50:34;;;;;;;3.10;2.30;;;18.20;99.90;;;;;;5048019;28;20916;-68
2022/07/10 08:53:05;;;;;;;2.60;2.00;;;18.10;99.90;;;;;;5048518;28;20463;-67
2022/07/10 08:55:32;;;;;;;3.47;2.10;;;18.10;99.90;;;;;;5047797;28;21040;-68
2022/07/10 08:58:00;;;;;;;2.97;2.00;;;18.30;99.90;;;;;;5048375;28;20459;-67
2022/07/10 09:00:28;;;;;;;2.20;2.00;;;18.40;99.90;;;;;;5047569;28;20452;-67
2022/07/10 09:02:56;;;;;;;2.77;1.70;;;18.40;99.90;;;;;;5048525;28;20471;-68
2022/07/10 09:05:23;;;;;;;2.90;2.00;;;18.30;99.90;;;;;;5048017;28;20615;-68
2022/07/10 09:07:51;;;;;;;2.57;2.00;;;18.20;99.90;;;;;;5048861;28;20456;-67
2022/07/10 09:10:22;;;;;;;2.23;2.03;;;18.20;99.90;;;;;;5047495;28;20574;-68
2022/07/10 09:12:54;;;;;;;3.93;2.27;;;18.20;99.90;;;;;;5048791;28;20451;-68
2022/07/10 09:15:22;;;;;;;5.07;2.30;;;18.30;99.90;;;;;;5048264;28;20483;-68
2022/07/10 09:17:55;;;;;;;10.10;2.60;;;18.30;99.90;;;;;;5048010;28;20881;-68
2022/07/10 09:20:27;;;;;;;3.37;2.03;;;18.30;99.90;;;;;;5047890;28;20847;-67
2022/07/10 09:22:53;;;;;;;3.70;2.10;;;18.20;99.90;;;;;;5047945;28;20474;-68
2022/07/10 09:25:21;;;;;;;3.77;2.27;;;18.10;99.90;;;;;;5048444;28;20490;-68
2022/07/10 09:27:54;;;;;;;3.67;2.20;;;18.00;99.90;;;;;;5048146;28;20471;-68
2022/07/10 09:30:33;;;;;;;2.70;1.83;;;17.90;99.90;;;;;;5047271;28;20479;-67
2022/07/10 09:33:17;;;;;;;3.20;1.83;;;18.20;99.90;;;;;;5048340;28;20458;-67
2022/07/10 09:36:05;;;;;;;3.13;2.20;;;18.40;99.90;;;;;;5046671;28;20471;-67
2022/07/10 09:38:49;;;;;;;5.83;2.13;;;18.50;99.90;;;;;;5047658;28;20455;-67
2022/07/10 09:41:18;;;;;;;2.43;2.23;;;18.50;99.90;;;;;;5047490;28;20448;-67
2022/07/10 09:43:45;;;;;;;2.77;2.27;;;18.70;99.90;;;;;;5048280;28;21890;-67
2022/07/10 09:46:12;;;;;;;2.90;2.20;;;19.10;99.90;;;;;;5047340;28;20478;-67
2022/07/10 09:48:41;;;;;;;3.80;2.10;;;19.20;99.90;;;;;;5047224;28;20490;-67
2022/07/10 09:51:09;;;;;;;6.33;2.13;;;19.00;99.90;;;;;;5047735;28;20484;-67
2022/07/10 09:53:39;;;;;;;3.33;1.93;;;18.90;99.90;;;;;;5046573;28;20467;-67
2022/07/10 09:56:08;;;;;;;5.13;2.23;;;19.00;99.90;;;;;;5046447;28;20475;-67
2022/07/10 09:58:36;;;;;;;2.57;2.10;;;19.10;99.90;;;;;;5048652;28;20491;-67
2022/07/10 10:01:04;;;;;;;3.73;2.10;;;19.20;99.90;;;;;;5047135;28;20479;-68
2022/07/10 10:03:34;;;;;;;2.50;2.20;;;19.30;99.90;;;;;;5048195;28;21020;-67
2022/07/10 10:06:07;;;;;;;2.23;2.03;;;19.10;99.90;;;;;;5047863;28;20909;-68
2022/07/10 10:08:43;;;;;;;2.93;2.63;;;19.20;99.90;;;;;;5047400;28;20947;-67
2022/07/10 10:11:14;;;;;;;4.80;2.03;;;19.20;99.90;;;;;;5046608;28;20479;-68
2022/07/10 10:13:43;;;;;;;3.20;2.30;;;19.10;99.90;;;;;;5047807;28;20869;-67
2022/07/10 10:16:11;;;;;;;2.60;2.10;;;19.00;99.90;;;;;;5046692;28;20565;-68
2022/07/10 10:20:36;;;;;;;2.90;2.17;;;18.90;99.90;;;;;;5046096;28;20965;-66
2022/07/10 10:21:27;;;;;;;3.30;2.50;;;19.00;99.90;;;;;;5046244;28;20530;-68
2022/07/10 10:23:55;;;;;;;2.73;1.93;;;19.50;99.90;;;;;;5046909;28;20851;-68
2022/07/10 10:26:24;;;;;;;3.17;2.40;;;19.80;99.90;;;;;;5048577;28;20479;-69
2022/07/10 10:28:53;;;;;;;4.77;2.90;;;19.60;99.90;;;;;;5105748;22;20530;-94
2022/07/10 10:31:22;;;;;;;4.83;2.50;;;19.60;99.90;;;;;;5054262;28;20722;-93
2022/07/10 10:34:11;;;;;;;5.40;3.47;;;19.70;99.90;;;;;;5053822;28;21031;-93
2022/07/10 10:36:48;;;;;;;4.17;2.83;;;19.70;99.90;;;;;;5033567;28;20515;-93
2022/07/10 10:39:18;;;;;;;3.10;2.37;;;19.80;99.90;;;;;;5034452;28;20833;-93
2022/07/10 10:41:50;;;;;;;2.13;1.93;;;19.90;99.90;;;;;;5033885;28;20460;-93
2022/07/10 10:44:50;;;;;;;3.80;2.17;;;20.10;99.90;;;;;;5036487;28;20486;-94
2022/07/10 10:47:27;;;;;;;2.83;2.13;;;20.20;99.90;;;;;;5040408;28;20531;-94
2022/07/10 10:53:05;;;;;;;2.60;1.90;;;19.70;99.90;;;;;;5038511;28;20456;-93
2022/07/10 10:55:36;;;;;;;2.93;1.93;;;19.40;99.90;;;;;;5036774;28;20476;-93
2022/07/10 10:58:26;;;;;;;2.53;2.20;;;19.40;99.90;;;;;;5019278;28;20510;-93
2022/07/10 11:01:25;;;;;;;3.00;1.87;;;19.60;99.90;;;;;;5036406;28;20472;-93
2022/07/10 11:06:56;;;;;;;3.13;2.67;;;20.40;99.90;;;;;;5034523;28;20456;-93
2022/07/10 11:09:35;;;;;;;2.30;2.00;;;20.70;99.90;;;;;;5039656;28;20457;-94
2022/07/10 11:12:10;;;;;;;3.30;2.20;;;20.50;99.90;;;;;;5037814;28;20511;-93
2022/07/10 11:14:40;;;;;;;4.17;2.10;;;20.10;99.90;;;;;;5037210;28;20480;-94
2022/07/10 11:17:13;;;;;;;2.37;2.17;;;20.10;99.90;;;;;;5037529;28;21011;-93
2022/07/10 11:19:41;;;;;;;3.00;2.40;;;20.30;99.90;;;;;;5031397;28;20502;-93
2022/07/10 11:22:29;;;;;;;3.40;2.00;;;20.60;99.90;;;;;;5035253;28;20566;-93
2022/07/10 11:25:13;;;;;;;2.33;2.13;;;20.90;99.90;;;;;;5032194;28;20484;-93
2022/07/10 11:28:01;;;;;;;3.27;2.00;;;21.30;99.90;;;;;;5035627;28;20460;-94
2022/07/10 11:30:53;;;;;;;3.00;1.90;;;21.10;99.90;;;;;;5035709;28;20456;-93
2022/07/10 11:33:21;;;;;;;2.53;2.00;;;20.80;99.40;;;;;;5036015;28;20464;-93
2022/07/10 11:35:50;;;;;;;4.30;2.00;;;20.50;99.80;;;;;;5033780;28;20522;-93
2022/07/10 11:38:21;;;;;;;4.93;1.87;;;20.50;99.90;;;;;;5116280;22;20810;-70
2022/07/10 11:40:49;;;;;;;2.43;2.00;;;20.80;99.90;;;;;;5071237;28;21012;-72
2022/07/10 11:43:19;;;;;;;2.10;1.90;;;21.00;99.90;;;;;;5071060;28;20469;-71
2022/07/10 11:45:46;;;;;;;1.70;1.60;;;21.30;99.90;;;;;;5071902;28;20528;-70
2022/07/10 11:48:20;;;;;;;2.90;2.03;;;21.40;99.00;;;;;;5070649;28;20455;-70
2022/07/10 11:50:47;;;;;;;3.10;2.13;;;21.50;99.60;;;;;;5071143;28;20938;-70
2022/07/10 11:53:14;;;;;;;3.40;2.10;;;21.60;98.90;;;;;;5071343;28;20466;-71
2022/07/10 11:55:41;;;;;;;2.80;2.03;;;21.80;98.90;;;;;;5073294;28;20496;-70
2022/07/10 11:58:15;;;;;;;2.90;1.67;;;21.90;98.10;;;;;;5072361;28;21038;-70
2022/07/10 12:00:42;;;;;;;3.43;1.60;;;22.20;99.20;;;;;;5070480;28;20806;-71
2022/07/10 12:03:20;;;;;;;3.10;1.70;;;22.20;97.10;;;;;;5072012;28;20455;-70
2022/07/10 12:05:50;;;;;;;2.43;2.00;;;22.00;97.50;;;;;;5073764;28;20483;-71
2022/07/10 12:08:17;;;;;;;2.70;1.60;;;22.00;97.50;;;;;;5075058;28;20458;-71
2022/07/10 12:10:44;;;;;;;2.50;1.50;;;22.10;97.30;;;;;;5073463;28;20459;-71
2022/07/10 12:13:12;;;;;;;2.47;1.90;;;22.30;98.60;;;;;;5074029;28;20806;-70
2022/07/10 12:15:42;;;;;;;4.57;1.50;;;22.40;98.70;;;;;;5071778;28;20563;-71
2022/07/10 12:18:12;;;;;;;3.57;1.60;;;22.50;97.10;;;;;;5073694;28;20822;-71
2022/07/10 12:20:42;;;;;;;2.93;1.63;;;22.50;96.40;;;;;;5073289;28;20459;-70
2022/07/10 12:23:10;;;;;;;2.30;1.40;;;22.60;97.50;;;;;;5072856;28;20602;-70
2022/07/10 12:25:36;;;;;;;2.20;1.40;;;22.60;97.00;;;;;;5073338;28;20502;-72
2022/07/10 12:28:03;;;;;;;2.40;1.60;;;22.60;96.80;;;;;;5072084;28;20470;-70
2022/07/10 12:30:42;;;;;;;2.73;2.00;;;22.60;96.90;;;;;;5068063;28;20458;-71
2022/07/10 12:33:15;;;;;;;2.90;1.53;;;22.70;95.60;;;;;;5069577;28;20816;-70
2022/07/10 12:35:53;;;;;;;1.80;1.30;;;22.70;96.80;;;;;;5072343;28;20489;-71
2022/07/10 12:38:21;;;;;;;2.40;1.30;;;22.90;97.30;;;;;;5070546;28;20466;-70
2022/07/10 12:40:48;;;;;;;1.50;1.30;;;23.00;95.60;;;;;;5069558;28;20459;-70
2022/07/10 12:43:26;;;;;;;3.23;1.60;;;22.90;94.90;;;;;;5070158;28;20794;-70
2022/07/10 12:46:14;;;;;;;2.33;1.20;;;22.80;95.40;;;;;;5069491;28;20510;-71
2022/07/10 12:48:43;;;;;;;1.53;1.40;;;22.80;95.20;;;;;;5069647;28;20450;-72
2022/07/10 12:51:24;;;;;;;3.90;1.50;;;22.80;95.00;;;;;;5068239;28;20451;-71
2022/07/10 12:53:50;;;;;;;2.33;1.37;;;22.90;94.80;;;;;;5069979;28;20462;-71
2022/07/10 12:56:31;;;;;;;4.60;1.50;;;23.00;95.10;;;;;;5069053;28;20471;-71
2022/07/10 12:58:59;;;;;;;3.03;1.90;;;23.10;94.50;;;;;;5069361;28;20446;-72
2022/07/10 13:01:29;;;;;;;5.33;1.50;;;23.20;94.80;;;;;;5068477;28;20492;-71
2022/07/10 13:04:00;;;;;;;2.23;1.20;;;23.20;93.40;;;;;;5068650;28;20516;-72
2022/07/10 13:06:28;;;;;;;2.50;1.50;;;23.10;93.50;;;;;;5070323;28;20448;-72
2022/07/10 13:08:55;;;;;;;1.73;1.37;;;23.00;94.50;;;;;;5069718;28;20450;-72